Allport, PA

8:56 AM EST on February 28, 2015 (GMT -0500)
South Philipsburg | Change Station
CLOSE
Current Station
Personal Weather Station
Location: Philipsburg, PA
Elevation: 1444 ft
Nearby Weather Stations
Active Advisory: Winter Storm Watch

Elev 1444 ft 40.89 °N, 78.22 °W | Updated 40 seconds ago

Partly Cloudy
Partly Cloudy
0.9 °F
Feels Like 1 °F
N
0.0
Wind Variable Wind from SW
Gusts 0.0 mph

Today
High -- | Low -- °F
--% Chance of Precip.
Yesterday
High -- | Low -- °F
Precip. -- in
6:48 AM 6:02 PM
Waxing Gibbous, 77% visible
Pressure 30.72 in
Visibility 10.0 miles
Clouds Mostly Cloudy 100 ft
Windchill 1 °F
Dew Point -5 °F
Humidity 76%
Rainfall 0.00 in
Snow Depth Not available.
UV 1 out of 12
Pollen .50 out of 12
Air Quality Not available.
Flu Activity Not available.
SPECI KFIG 281344Z AUTO 00000KT 10SM BKN001 M19/M21 A3072 RMK AO2 T11891211

More Conditions Fewer Conditions

Pressure 30.72 in
Visibility 10.0 miles
Clouds Mostly Cloudy 100 ft
Windchill 1 °F
Dew Point -5 °F
Humidity 76%
Rainfall 0.00 in
Snow Depth Not available.
UV 1 out of 12
Pollen .50 out of 12
Air Quality Not available.
Flu Activity Not available.
SPECI KFIG 281344Z AUTO 00000KT 10SM BKN001 M19/M21 A3072 RMK AO2 T11891211

More Conditions Fewer Conditions

10-Day Weather Forecast

Almanac

Astronomy

Feb. 28, 2015 Rise Set
Actual Time
Civil Twilight
Nautical Twilight
Astronomical Twilight
Moon
Length of Visible Light
Length of Day
Tomorrow will be .
, % of the Moon is Illuminated

Today's Extremes

State Highs State Lows

Community

WunderPhotos

Upload Photos

1,801,014 photos uploaded!

WunderBlogs® & News

Nearby

Air Quality

  Air Quality AQ Index Pollutant
Not available.

Snow Depth

Station Depth Elevation

Earthquake Activity

City Distance Mag. Time & Date
Minimum magnitude displayed is 2.5.

Coastal Water Temperatures

Place Temperature

Nearby Weather Stations

Winter Storm Watch
Statement as of 6:18 AM EST on February 28, 2015

... Winter Storm Watch remains in effect from late tonight through
Monday morning...

* locations... the northwest mountains.

* Hazard types... snow.

* Accumulations... 6 to 8 inches possible.

* Timing... light snow will overspread the region during the
early morning hours Sunday and become steadier and heavier
Sunday afternoon and night.

* Impacts... hazardous travel from snow covered roads and poor
visibility at times.


Precautionary/preparedness actions...

A Winter Storm Watch means there is a potential for significant
snow... sleet... or ice accumulations that may impact travel. Stay
tuned to NOAA Weather Radio or your favorite source of weather
information for the latest updates. Additional details can also
be found at... weather.Gov/statecollege.